Time;durP1;ratioP1;P1;durP2;ratioP2;P2;SDS_P1;SDS_P2;PMS_P1;PMS_P2;Temp;Humidity;BMP_temperature;BMP_pressure;BME280_temperature;BME280_humidity;BME280_pressure;Samples;Min_cycle;Max_cycle;Signal;HPM_P1;HPM_P2
2021/08/07 00:00:59;;;;;;;6.07;3.08;;;17.10;74.50;;;15.95;72.74;95350.50;4953955;28;20439;-65
2021/08/07 00:03:25;;;;;;;6.65;3.15;;;17.00;74.50;;;15.89;72.29;95349.63;4942935;28;20115;-65
2021/08/07 00:05:51;;;;;;;6.95;3.15;;;17.00;74.90;;;15.87;73.04;95356.22;4907359;29;20519;-65
2021/08/07 00:08:17;;;;;;;5.15;2.92;;;16.90;75.20;;;15.85;72.78;95351.16;4934239;28;20046;-65
2021/08/07 00:10:42;;;;;;;5.10;2.80;;;17.00;75.60;;;15.85;72.55;95353.81;4939596;28;20463;-64
2021/08/07 00:13:08;;;;;;;4.53;2.58;;;17.00;75.60;;;15.84;72.57;95344.25;4967410;28;20050;-64
2021/08/07 00:15:34;;;;;;;5.20;2.90;;;17.00;75.50;;;15.82;72.80;95350.81;4965213;28;20050;-64
2021/08/07 00:18:00;;;;;;;4.30;3.00;;;17.00;75.70;;;15.77;73.30;95343.59;4945455;28;20043;-65
2021/08/07 00:20:25;;;;;;;10.73;2.85;;;16.90;75.90;;;15.79;72.78;95346.00;4944040;28;20040;-64
2021/08/07 00:22:51;;;;;;;4.07;2.58;;;16.90;75.80;;;15.79;73.60;95364.56;4965148;28;20375;-64
2021/08/07 00:25:17;;;;;;;5.68;2.55;;;16.90;75.60;;;15.77;73.87;95356.03;4955950;28;20035;-62
2021/08/07 00:27:43;;;;;;;6.43;3.22;;;16.80;75.30;;;15.73;72.98;95347.75;4930921;28;20074;-63
2021/08/07 00:30:09;;;;;;;7.18;2.80;;;16.80;75.50;;;15.72;73.71;95348.00;4972171;28;20071;-63
2021/08/07 00:32:35;;;;;;;3.00;2.28;;;16.90;75.50;;;15.69;73.43;95354.59;4950170;28;20039;-63
2021/08/07 00:35:01;;;;;;;5.25;2.80;;;16.80;75.60;;;15.64;73.85;95373.06;4936905;28;20090;-64
2021/08/07 00:37:27;;;;;;;4.43;3.00;;;16.70;76.00;;;15.60;74.36;95366.59;4941895;28;20403;-64
2021/08/07 00:39:52;;;;;;;4.82;3.05;;;16.60;76.10;;;15.56;74.16;95368.09;4951323;28;20039;-64
2021/08/07 00:42:18;;;;;;;3.97;2.85;;;16.60;76.30;;;15.52;74.44;95361.66;4926679;28;20432;-63
2021/08/07 00:44:44;;;;;;;4.72;2.70;;;16.60;76.30;;;15.48;73.93;95360.53;4952089;28;20490;-63
2021/08/07 00:47:10;;;;;;;3.78;2.83;;;16.60;76.40;;;15.46;74.49;95354.69;4952688;28;20542;-64
2021/08/07 00:49:35;;;;;;;3.97;3.10;;;16.60;76.40;;;15.44;74.51;95351.47;4928499;28;20547;-63
2021/08/07 00:52:01;;;;;;;5.85;2.88;;;16.50;76.40;;;15.43;74.42;95352.50;4963424;28;20498;-63
2021/08/07 00:54:27;;;;;;;7.35;2.85;;;16.50;76.60;;;15.41;74.68;95357.25;4985461;28;20522;-64
2021/08/07 00:56:53;;;;;;;5.07;2.97;;;16.50;76.80;;;15.41;75.06;95352.75;4940394;28;20471;-63
2021/08/07 00:59:18;;;;;;;6.13;3.17;;;16.60;76.90;;;15.40;74.79;95355.63;4952358;28;20585;-63
2021/08/07 01:01:57;;;;;;;8.63;3.13;;;16.60;76.90;;;15.38;75.76;95355.03;4954689;28;20534;-64
2021/08/07 01:04:24;;;;;;;7.68;3.17;;;16.50;76.70;;;15.31;74.43;95341.94;4918292;29;20044;-63
2021/08/07 01:07:13;;;;;;;5.65;3.40;;;16.50;76.60;;;15.32;76.05;95331.09;4959999;28;20034;-63
2021/08/07 01:09:44;;;;;;;8.02;3.70;;;16.50;76.60;;;15.32;74.29;95327.66;4984675;28;20066;-63
2021/08/07 01:12:47;;;;;;;6.13;3.55;;;16.50;76.70;;;15.28;76.33;95326.53;4969418;28;20039;-65
2021/08/07 01:15:26;;;;;;;6.10;3.42;;;16.40;76.90;;;15.26;75.17;95313.50;4930507;28;20039;-64
2021/08/07 01:17:53;;;;;;;5.13;3.50;;;16.40;77.10;;;15.28;75.04;95321.22;4948326;28;20488;-65
2021/08/07 01:20:53;;;;;;;4.60;3.10;;;16.50;77.00;;;15.32;76.19;95328.44;4961715;28;20392;-64
2021/08/07 01:23:45;;;;;;;8.57;3.70;;;16.50;77.20;;;15.33;75.96;95319.47;4964701;28;20036;-64
2021/08/07 01:26:15;;;;;;;5.45;3.10;;;16.50;77.30;;;15.33;75.13;95323.97;4952341;28;20448;-64
2021/08/07 01:28:42;;;;;;;6.50;3.22;;;16.50;77.10;;;15.31;74.81;95321.53;4948597;28;20086;-64
2021/08/07 01:31:09;;;;;;;5.65;3.28;;;16.50;77.20;;;15.26;75.85;95313.50;4950333;28;20122;-65
2021/08/07 01:33:34;;;;;;;5.35;2.90;;;16.40;77.50;;;15.19;75.56;95296.16;4935113;28;20039;-64
2021/08/07 01:36:02;;;;;;;4.78;3.28;;;16.30;77.70;;;15.16;75.72;95297.44;4931746;28;20087;-64
2021/08/07 01:38:29;;;;;;;43.60;33.60;;;16.30;78.00;;;15.17;75.33;95291.09;4951207;28;20050;-64
2021/08/07 01:40:55;;;;;;;41.30;34.72;;;16.30;78.50;;;15.20;77.08;95293.28;4958673;28;20547;-65
2021/08/07 01:43:20;;;;;;;20.73;16.27;;;16.40;78.90;;;15.21;75.73;95299.38;4962217;28;20118;-64
2021/08/07 01:45:46;;;;;;;6.10;4.50;;;16.40;78.60;;;15.21;76.55;95288.78;4960195;28;20459;-64
2021/08/07 01:48:44;;;;;;;4.70;3.50;;;16.50;78.50;;;15.20;78.46;95287.97;4955245;28;20062;-65
2021/08/07 01:51:15;;;;;;;5.03;2.97;;;16.40;78.50;;;15.23;76.94;95284.03;4950350;28;20039;-64
2021/08/07 01:53:42;;;;;;;5.43;3.10;;;16.50;78.30;;;15.25;76.11;95298.66;4942519;28;20031;-64
2021/08/07 01:56:28;;;;;;;5.35;2.78;;;16.50;77.90;;;15.27;76.02;95301.88;4923506;28;20057;-64
2021/08/07 01:59:07;;;;;;;6.00;3.50;;;16.50;77.80;;;15.29;76.73;95299.78;4940728;28;20109;-64
2021/08/07 02:01:32;;;;;;;5.38;2.92;;;16.50;77.90;;;15.29;76.88;95301.63;4939955;28;20125;-64
2021/08/07 02:04:00;;;;;;;7.32;3.38;;;16.50;78.10;;;15.28;75.89;95303.47;4959023;28;20035;-64
2021/08/07 02:06:25;;;;;;;5.07;3.05;;;16.50;77.90;;;15.26;76.75;95294.97;4939366;28;20058;-64
2021/08/07 02:08:51;;;;;;;4.78;3.17;;;16.50;78.10;;;15.25;76.85;95295.19;4935351;28;20090;-64
2021/08/07 02:11:17;;;;;;;5.43;3.15;;;16.50;78.10;;;15.23;76.29;95282.19;4953938;28;20043;-65
2021/08/07 02:13:43;;;;;;;5.35;3.13;;;16.40;78.10;;;15.21;75.94;95281.63;4935292;28;20093;-64
2021/08/07 02:16:09;;;;;;;6.10;3.38;;;16.40;78.30;;;15.22;76.56;95291.19;4945700;28;20115;-65
2021/08/07 02:18:34;;;;;;;6.35;3.10;;;16.40;78.30;;;15.22;76.53;95279.78;4922325;28;20114;-64
2021/08/07 02:21:01;;;;;;;5.72;3.17;;;16.40;78.60;;;15.22;76.83;95279.78;4943188;28;20034;-65
2021/08/07 02:23:27;;;;;;;5.65;3.40;;;16.40;78.60;;;15.21;76.49;95283.47;4938290;28;20031;-64
2021/08/07 02:25:59;;;;;;;5.10;3.17;;;16.40;78.60;;;15.19;78.73;95285.56;4922963;28;20038;-65
2021/08/07 02:28:25;;;;;;;6.82;3.42;;;16.40;78.60;;;15.18;76.59;95290.06;4943230;28;20529;-64
2021/08/07 02:30:51;;;;;;;3.97;2.97;;;16.40;78.60;;;15.17;76.89;95288.44;4950814;28;20058;-64
2021/08/07 02:33:18;;;;;;;4.80;3.20;;;16.40;78.70;;;15.20;77.62;95282.69;4934775;28;20476;-64
2021/08/07 02:35:44;;;;;;;4.68;2.88;;;16.40;78.80;;;15.19;76.73;95273.13;4919512;29;20041;-64
2021/08/07 02:38:10;;;;;;;7.15;3.35;;;16.40;78.80;;;15.17;77.49;95280.50;4951661;28;20115;-64
2021/08/07 02:40:35;;;;;;;5.15;3.17;;;16.40;78.90;;;15.16;77.28;95281.53;4923664;28;20039;-64
2021/08/07 02:43:02;;;;;;;5.45;2.78;;;16.50;78.80;;;15.18;76.51;95283.97;4941700;28;20514;-64
2021/08/07 02:45:28;;;;;;;7.32;3.10;;;16.50;78.70;;;15.18;76.85;95266.22;4940767;28;20438;-64
2021/08/07 02:47:53;;;;;;;6.25;3.20;;;16.50;78.70;;;15.16;77.44;95260.34;4928954;28;20038;-65
2021/08/07 02:50:19;;;;;;;4.70;2.67;;;16.40;78.80;;;15.12;77.66;95253.91;4976638;28;20035;-64
2021/08/07 02:52:45;;;;;;;6.25;3.10;;;16.30;79.00;;;15.07;77.53;95253.81;4937499;29;20036;-65
2021/08/07 02:55:11;;;;;;;5.35;3.03;;;16.30;79.20;;;15.05;77.50;95253.25;4921631;28;20122;-64
2021/08/07 02:57:37;;;;;;;5.78;3.28;;;16.20;79.40;;;15.06;77.38;95254.84;4938475;28;20063;-64
2021/08/07 03:00:03;;;;;;;4.47;2.85;;;16.30;79.30;;;15.07;78.07;95256.47;4937572;28;20125;-64
2021/08/07 03:02:29;;;;;;;8.25;3.33;;;16.30;79.30;;;15.09;78.44;95269.47;4950797;28;20466;-64
2021/08/07 03:04:55;;;;;;;5.80;3.45;;;16.40;79.20;;;15.12;78.52;95264.50;4936303;28;20038;-65
2021/08/07 03:07:20;;;;;;;5.97;3.10;;;16.40;79.30;;;15.11;78.48;95256.78;4938577;28;20181;-65
2021/08/07 03:09:46;;;;;;;20.95;14.80;;;16.30;79.40;;;15.09;78.49;95257.03;4969160;28;20506;-65
2021/08/07 03:12:12;;;;;;;32.15;27.05;;;16.30;79.70;;;15.11;78.80;95249.66;4967223;28;20041;-65
2021/08/07 03:14:38;;;;;;;25.85;19.40;;;16.40;79.90;;;15.12;78.23;95253.09;4969835;28;20050;-64
2021/08/07 03:17:04;;;;;;;14.82;12.15;;;16.50;79.80;;;15.09;77.80;95257.03;4950095;28;20075;-65
2021/08/07 03:19:30;;;;;;;22.10;17.80;;;16.30;79.80;;;15.11;78.56;95262.88;4944734;28;20035;-65
2021/08/07 03:21:56;;;;;;;17.13;12.68;;;16.40;79.90;;;15.11;77.90;95270.84;4951980;28;20032;-64
2021/08/07 03:24:22;;;;;;;7.38;5.20;;;16.40;79.70;;;15.11;77.48;95270.84;4943544;28;20110;-65
2021/08/07 03:26:47;;;;;;;6.35;3.83;;;16.40;79.60;;;15.10;78.89;95263.94;4982696;28;20448;-64
2021/08/07 03:29:13;;;;;;;5.75;3.80;;;16.40;79.50;;;15.08;78.52;95255.41;4968169;28;20510;-65
2021/08/07 03:31:39;;;;;;;5.90;3.03;;;16.40;79.50;;;15.06;78.67;95248.75;4954494;28;20031;-64
2021/08/07 03:34:05;;;;;;;5.18;3.10;;;16.30;79.70;;;15.00;77.66;95251.31;4945794;28;20043;-65
2021/08/07 03:36:30;;;;;;;5.80;3.22;;;16.20;79.70;;;15.00;78.68;95261.91;4950112;29;20162;-66
2021/08/07 03:38:56;;;;;;;9.13;3.55;;;16.30;79.70;;;15.02;78.15;95264.31;4958786;28;20094;-66
2021/08/07 03:41:22;;;;;;;7.03;3.63;;;16.30;79.60;;;15.05;78.49;95263.03;4920792;28;20026;-61
2021/08/07 03:43:48;;;;;;;5.50;3.50;;;16.40;79.40;;;15.06;78.50;95267.31;4947712;28;20122;-63
2021/08/07 03:46:14;;;;;;;47.08;37.67;;;16.50;79.40;;;15.07;78.28;95251.16;4944635;28;20039;-63
2021/08/07 03:48:39;;;;;;;56.75;43.60;;;16.40;79.40;;;15.07;79.17;95245.88;4936718;28;20586;-62
2021/08/07 03:51:05;;;;;;;17.33;12.70;;;16.30;79.80;;;15.07;78.72;95243.22;4936509;28;20035;-63
2021/08/07 03:53:31;;;;;;;11.70;5.78;;;16.40;79.70;;;15.08;79.28;95231.59;4944050;28;20106;-62
2021/08/07 03:55:56;;;;;;;16.60;13.65;;;16.40;79.70;;;15.10;79.32;95234.00;4936978;28;20515;-63
2021/08/07 03:58:22;;;;;;;30.63;20.25;;;16.40;79.80;;;15.12;79.36;95232.72;4968600;28;20219;-62
2021/08/07 04:00:48;;;;;;;57.08;47.53;;;16.50;79.60;;;15.13;78.51;95222.91;4969219;28;20073;-63
2021/08/07 04:03:14;;;;;;;17.85;14.02;;;16.50;79.40;;;15.12;78.92;95238.00;4964892;28;20039;-63
2021/08/07 04:05:39;;;;;;;14.35;12.02;;;16.50;79.10;;;15.12;78.10;95235.38;4967478;28;20026;-62
2021/08/07 04:08:09;;;;;;;13.57;10.45;;;16.40;79.00;;;15.11;78.43;95239.06;4968175;28;20037;-63
2021/08/07 04:10:35;;;;;;;7.80;4.68;;;16.50;79.00;;;15.11;77.94;95241.69;4933531;28;20039;-63
2021/08/07 04:13:01;;;;;;;9.07;3.78;;;16.50;79.10;;;15.11;79.10;95244.34;4933725;28;20526;-64
2021/08/07 04:15:26;;;;;;;5.22;2.97;;;16.40;78.80;;;15.08;78.92;95244.81;4965892;28;20028;-64
2021/08/07 04:17:52;;;;;;;6.25;3.10;;;16.40;79.10;;;15.07;78.13;95240.56;4953096;28;20114;-63
2021/08/07 04:20:18;;;;;;;6.43;3.13;;;16.40;79.10;;;15.06;78.50;95238.97;4961768;28;20034;-62
2021/08/07 04:22:44;;;;;;;5.18;3.30;;;16.40;79.10;;;15.04;79.35;95230.47;4932250;28;20124;-63
2021/08/07 04:25:10;;;;;;;5.95;2.92;;;16.40;79.20;;;15.06;78.15;95227.56;4955524;28;20529;-63
2021/08/07 04:27:35;;;;;;;6.47;3.03;;;16.40;79.10;;;15.06;78.08;95236.31;4909621;28;20050;-62
2021/08/07 04:30:02;;;;;;;5.85;3.40;;;16.40;79.10;;;15.07;79.58;95253.81;4971430;28;20050;-65
2021/08/07 04:32:28;;;;;;;5.07;3.10;;;16.50;79.10;;;15.06;78.24;95257.50;4987823;28;20036;-62
2021/08/07 04:34:54;;;;;;;5.05;3.30;;;16.40;79.10;;;15.05;77.76;95263.03;4932427;28;20031;-62
2021/08/07 04:37:20;;;;;;;5.88;3.22;;;16.40;79.00;;;15.05;78.69;95263.84;4948543;28;21506;-62
2021/08/07 04:39:45;;;;;;;5.90;2.85;;;16.40;78.90;;;15.06;78.75;95269.94;4938204;29;20042;-62
2021/08/07 04:42:11;;;;;;;8.95;2.85;;;16.40;78.90;;;15.06;79.08;95256.69;4914928;29;20059;-62
2021/08/07 04:44:37;;;;;;;6.13;3.00;;;16.40;78.80;;;15.07;78.90;95259.13;4957969;28;20055;-62
2021/08/07 04:47:03;;;;;;;6.80;3.20;;;16.40;78.90;;;15.12;78.51;95253.91;4933218;28;20165;-62
2021/08/07 04:49:29;;;;;;;20.02;14.48;;;16.60;78.90;;;15.15;79.09;95258.72;4917574;29;20035;-63
2021/08/07 04:51:55;;;;;;;48.03;31.85;;;16.60;79.10;;;15.18;79.27;95255.63;4933810;28;20122;-62
2021/08/07 04:54:20;;;;;;;17.45;14.27;;;16.60;79.50;;;15.23;79.58;95261.00;4965764;28;20448;-63
2021/08/07 04:56:46;;;;;;;16.95;13.80;;;16.60;79.80;;;15.27;80.02;95263.97;4971919;28;20443;-62
2021/08/07 04:59:12;;;;;;;24.75;19.67;;;16.70;79.80;;;15.31;79.01;95257.94;4937963;28;20124;-62
2021/08/07 05:01:38;;;;;;;7.18;4.55;;;16.80;79.90;;;15.35;79.29;95263.56;4954208;28;20039;-63
2021/08/07 05:04:04;;;;;;;7.45;3.03;;;16.80;79.90;;;15.38;79.96;95263.09;4951958;28;20034;-62
2021/08/07 05:06:29;;;;;;;6.88;3.08;;;16.80;79.90;;;15.43;80.35;95262.41;4972186;28;20031;-63
2021/08/07 05:08:55;;;;;;;5.57;3.08;;;16.90;79.80;;;15.45;80.20;95261.13;4956016;28;20131;-62
2021/08/07 05:11:21;;;;;;;6.78;3.17;;;16.90;80.00;;;15.48;79.41;95251.88;4921870;28;20496;-63
2021/08/07 05:13:46;;;;;;;5.55;3.08;;;17.00;79.70;;;15.52;79.74;95247.69;4953012;28;20079;-62
2021/08/07 05:16:12;;;;;;;6.07;2.50;;;17.00;79.40;;;15.56;80.27;95254.94;4921151;29;20130;-62
2021/08/07 05:18:38;;;;;;;3.53;2.50;;;17.00;79.30;;;15.59;79.42;95258.97;4952519;28;20035;-62
2021/08/07 05:21:04;;;;;;;4.65;2.70;;;17.10;79.20;;;15.64;79.38;95251.13;4950212;28;20458;-63
2021/08/07 05:23:29;;;;;;;5.63;3.10;;;17.10;79.00;;;15.70;79.19;95239.53;4971757;28;20125;-62
2021/08/07 05:25:55;;;;;;;4.18;2.75;;;17.20;79.10;;;15.75;79.00;95236.97;4971868;28;20461;-62
2021/08/07 05:28:21;;;;;;;4.85;2.47;;;17.40;78.80;;;15.82;80.09;95232.28;4971469;28;20510;-62
2021/08/07 05:30:46;;;;;;;4.78;2.65;;;17.50;78.80;;;15.90;78.95;95237.19;4975188;28;20089;-63
2021/08/07 05:33:12;;;;;;;5.55;2.70;;;17.60;78.70;;;15.97;80.27;95234.38;4972357;28;20034;-62
2021/08/07 05:35:38;;;;;;;4.30;2.83;;;17.70;78.50;;;16.05;79.19;95241.09;4923116;28;20410;-62
2021/08/07 05:38:04;;;;;;;6.82;2.70;;;17.70;78.30;;;16.13;79.03;95235.41;4962408;28;20023;-63
2021/08/07 05:40:30;;;;;;;4.78;2.95;;;17.80;78.00;;;16.18;79.30;95230.16;4964900;28;20499;-62
2021/08/07 05:42:56;;;;;;;4.68;2.83;;;17.80;77.80;;;16.23;80.01;95232.88;4968655;28;20574;-62
2021/08/07 05:45:22;;;;;;;4.68;2.60;;;17.90;77.60;;;16.30;78.52;95222.91;4951761;29;20043;-62
2021/08/07 05:47:47;;;;;;;3.33;2.67;;;18.10;77.40;;;16.40;79.16;95212.41;4946444;28;20038;-63
2021/08/07 05:50:13;;;;;;;6.13;2.65;;;18.20;77.10;;;16.48;79.16;95217.25;4960521;28;20036;-63
2021/08/07 05:52:39;;;;;;;5.30;2.80;;;18.10;77.00;;;16.53;78.52;95221.84;4925517;28;20081;-63
2021/08/07 05:55:06;;;;;;;6.05;2.80;;;18.20;77.00;;;16.57;78.31;95228.28;4951594;28;20586;-63
2021/08/07 05:57:31;;;;;;;5.00;2.90;;;18.20;77.10;;;16.59;78.79;95233.34;4945134;28;20039;-62
2021/08/07 05:59:57;;;;;;;6.95;3.40;;;18.20;77.20;;;16.61;78.82;95229.38;4967769;28;20055;-63
2021/08/07 06:02:23;;;;;;;15.45;7.85;;;18.20;77.20;;;16.64;78.24;95228.09;4967945;28;20035;-63
2021/08/07 06:04:49;;;;;;;21.77;12.57;;;18.20;77.40;;;16.68;78.54;95239.84;4967914;28;20462;-62
2021/08/07 06:07:16;;;;;;;22.75;10.27;;;18.20;77.30;;;16.71;78.73;95242.00;4972824;28;20102;-63
2021/08/07 06:09:42;;;;;;;16.98;9.07;;;18.40;76.90;;;16.75;77.91;95249.25;4936280;28;20035;-62
2021/08/07 06:12:08;;;;;;;6.75;4.30;;;18.50;76.40;;;16.83;77.64;95255.94;4954864;28;20030;-62
2021/08/07 06:14:34;;;;;;;9.10;3.03;;;18.70;75.80;;;16.99;77.94;95247.13;4970970;28;20414;-62
2021/08/07 06:16:59;;;;;;;5.78;3.10;;;19.10;74.50;;;17.20;78.16;95232.19;4974465;28;20562;-63
2021/08/07 06:19:25;;;;;;;5.45;3.28;;;19.50;73.70;;;17.40;77.45;95220.91;4952500;28;20039;-63
2021/08/07 06:21:51;;;;;;;17.08;9.32;;;19.60;73.00;;;17.55;77.21;95210.41;4958308;28;20066;-63
2021/08/07 06:24:17;;;;;;;27.27;19.90;;;19.70;72.00;;;17.68;76.14;95196.72;4947743;28;20031;-63
2021/08/07 06:26:43;;;;;;;10.98;5.60;;;19.80;71.40;;;17.81;76.29;95210.63;4953457;28;20083;-63
2021/08/07 06:29:09;;;;;;;12.90;4.22;;;20.00;70.90;;;17.95;75.51;95206.47;4919185;28;20042;-64
2021/08/07 06:31:35;;;;;;;36.60;7.35;;;20.10;70.50;;;18.10;75.19;95216.38;4930952;29;20405;-63
2021/08/07 06:34:00;;;;;;;12.50;3.83;;;20.30;70.00;;;18.18;74.64;95216.72;4947755;28;20584;-64
2021/08/07 06:36:26;;;;;;;8.65;3.50;;;20.30;69.60;;;18.29;75.02;95223.69;4938187;28;20035;-66
2021/08/07 06:38:53;;;;;;;8.40;2.65;;;20.50;69.10;;;18.42;74.58;95218.97;4910243;29;20058;-66
2021/08/07 06:41:19;;;;;;;5.63;2.80;;;20.70;68.60;;;18.52;73.38;95216.34;4950791;28;20035;-65
2021/08/07 06:43:44;;;;;;;5.32;2.60;;;20.90;67.90;;;18.65;73.11;95222.03;4912789;28;20463;-66
2021/08/07 06:46:10;;;;;;;4.40;2.88;;;21.00;67.50;;;18.74;72.66;95224.19;4949363;28;20503;-64
2021/08/07 06:48:37;;;;;;;10.60;3.10;;;20.90;67.80;;;18.81;73.28;95225.56;4938174;28;20575;-64
2021/08/07 06:51:05;;;;;;;5.75;2.95;;;21.00;67.50;;;18.90;72.74;95223.16;4962779;28;20074;-64
2021/08/07 06:53:31;;;;;;;4.75;2.60;;;21.20;66.20;;;19.01;71.72;95218.66;4947233;28;20032;-66
2021/08/07 06:55:57;;;;;;;5.03;3.00;;;21.60;65.20;;;19.14;72.36;95228.81;4950514;28;20087;-65
2021/08/07 06:58:23;;;;;;;7.72;3.03;;;21.80;64.20;;;19.32;71.42;95235.53;4936266;28;20067;-66
2021/08/07 07:00:48;;;;;;;8.25;4.05;;;22.20;63.40;;;19.51;70.74;95232.09;4947537;28;20097;-65
2021/08/07 07:03:14;;;;;;;5.63;3.25;;;22.50;62.10;;;19.70;70.00;95221.72;4936047;28;20105;-64
2021/08/07 07:05:40;;;;;;;9.20;3.65;;;22.60;62.20;;;19.86;70.30;95206.47;4933045;28;20177;-65
2021/08/07 07:08:06;;;;;;;8.93;2.75;;;22.50;62.00;;;20.00;70.58;95196.06;4960398;28;20077;-65
2021/08/07 07:10:31;;;;;;;19.73;4.95;;;22.60;62.60;;;20.09;70.28;95200.56;4962805;28;20035;-65
2021/08/07 07:12:57;;;;;;;14.70;3.50;;;22.50;62.40;;;20.18;69.19;95201.63;4932828;28;20415;-65
2021/08/07 07:15:23;;;;;;;7.53;2.90;;;22.50;63.00;;;20.24;69.16;95206.94;4927313;28;20109;-65
2021/08/07 07:17:49;;;;;;;13.77;2.92;;;22.50;62.60;;;20.27;68.42;95203.75;4941325;28;20027;-66
2021/08/07 07:20:15;;;;;;;17.48;4.03;;;22.60;62.60;;;20.37;68.27;95198.38;4955259;28;20516;-65
2021/08/07 07:22:41;;;;;;;6.03;2.80;;;22.70;62.10;;;20.46;67.57;95192.22;4925304;28;20027;-65
2021/08/07 07:25:09;;;;;;;4.93;2.38;;;23.00;60.80;;;20.53;67.39;95186.56;4968008;28;20051;-66
2021/08/07 07:27:35;;;;;;;5.80;3.03;;;23.00;60.50;;;20.60;67.55;95197.00;4933083;28;20038;-65
2021/08/07 07:30:01;;;;;;;6.70;2.65;;;23.20;60.80;;;20.75;67.39;95196.91;4969146;28;20497;-65
2021/08/07 07:32:27;;;;;;;10.77;3.55;;;23.70;60.00;;;20.94;67.33;95197.88;4935965;28;20031;-66
2021/08/07 07:34:53;;;;;;;6.97;2.72;;;24.00;58.80;;;21.13;67.49;95200.72;4968766;28;20499;-65
2021/08/07 07:37:18;;;;;;;4.90;2.67;;;24.20;58.00;;;21.33;66.14;95205.16;4935857;28;20122;-66
2021/08/07 07:39:44;;;;;;;3.83;2.20;;;24.60;55.50;;;21.54;66.05;95189.78;4968778;28;20050;-64
2021/08/07 07:42:10;;;;;;;4.22;2.40;;;25.10;55.00;;;21.84;65.05;95184.16;4953233;28;20578;-65
2021/08/07 07:44:36;;;;;;;18.45;4.10;;;25.50;54.30;;;22.12;65.12;95193.25;4952569;28;20502;-65
2021/08/07 07:47:03;;;;;;;26.55;4.63;;;25.60;53.50;;;22.39;64.51;95184.66;4952760;28;20087;-65
2021/08/07 07:49:28;;;;;;;22.45;4.63;;;26.10;53.20;;;22.75;64.20;95184.25;4952365;28;20037;-65
2021/08/07 07:51:54;;;;;;;10.43;3.20;;;26.70;51.30;;;23.08;62.83;95180.59;4966760;28;20043;-64
2021/08/07 07:54:20;;;;;;;4.10;1.80;;;27.10;49.20;;;23.38;61.53;95175.88;4967544;28;20069;-65
2021/08/07 07:56:45;;;;;;;8.35;3.65;;;27.50;47.40;;;23.71;61.23;95180.19;4954007;28;20071;-64
2021/08/07 07:59:11;;;;;;;32.40;28.67;;;27.80;46.90;;;24.03;60.51;95173.22;4948033;28;20087;-65
2021/08/07 08:01:37;;;;;;;6.13;2.83;;;27.90;46.90;;;24.22;59.34;95173.94;4941011;28;20071;-65
2021/08/07 08:04:03;;;;;;;3.47;1.88;;;27.50;46.80;;;24.35;59.11;95169.69;4969230;28;20109;-65
2021/08/07 08:06:28;;;;;;;2.83;1.60;;;27.50;47.10;;;24.42;58.18;95162.00;4965051;28;20031;-66
2021/08/07 08:08:54;;;;;;;3.20;1.30;;;27.20;47.10;;;24.51;58.11;95160.25;4917492;28;20039;-64
2021/08/07 08:11:20;;;;;;;3.15;1.65;;;27.20;48.20;;;24.53;57.21;95170.69;4952058;28;20080;-67
2021/08/07 08:13:46;;;;;;;4.75;1.70;;;27.00;47.60;;;24.47;56.79;95161.94;4952788;28;20097;-65
2021/08/07 08:16:11;;;;;;;4.95;1.63;;;26.80;48.20;;;24.43;57.09;95172.47;4941620;28;20079;-66
2021/08/07 08:18:37;;;;;;;2.22;1.40;;;26.70;49.10;;;24.37;56.73;95168.28;4953136;28;20044;-68
2021/08/07 08:21:03;;;;;;;3.70;1.48;;;26.70;49.00;;;24.38;56.09;95163.72;4951214;28;20043;-67
2021/08/07 08:23:29;;;;;;;4.35;2.03;;;26.90;48.80;;;24.47;56.11;95171.91;4952591;28;20031;-67
2021/08/07 08:25:55;;;;;;;3.50;1.58;;;27.10;47.40;;;24.57;55.60;95160.94;4942915;28;20492;-67
2021/08/07 08:28:20;;;;;;;3.03;1.50;;;27.50;46.60;;;24.72;55.21;95157.94;4943896;28;20101;-67
2021/08/07 08:30:46;;;;;;;1.98;1.30;;;27.80;45.10;;;24.93;55.17;95161.78;4950994;28;20042;-66
2021/08/07 08:33:12;;;;;;;2.90;1.50;;;28.10;45.30;;;25.17;54.99;95160.75;4937590;28;20115;-67
2021/08/07 08:35:38;;;;;;;4.32;1.48;;;28.40;45.60;;;25.35;54.55;95154.41;4951056;28;20102;-67
2021/08/07 08:38:03;;;;;;;2.88;1.60;;;28.50;44.90;;;25.55;54.35;95153.91;4941733;28;20579;-68
2021/08/07 08:40:29;;;;;;;3.65;1.42;;;28.90;43.80;;;25.81;53.90;95150.63;4965315;28;20538;-67
2021/08/07 08:42:55;;;;;;;2.88;1.40;;;29.20;43.50;;;26.04;53.42;95144.09;4971876;28;20072;-68
2021/08/07 08:45:21;;;;;;;3.92;1.75;;;29.30;42.80;;;26.18;52.33;95144.78;4938478;28;20086;-67
2021/08/07 08:47:47;;;;;;;4.93;1.92;;;29.20;42.70;;;26.31;52.66;95142.31;4952164;28;20039;-65
2021/08/07 08:50:13;;;;;;;2.58;1.55;;;29.10;44.30;;;26.33;51.86;95145.47;4948049;28;20042;-66
2021/08/07 08:52:40;;;;;;;3.40;1.80;;;29.00;43.40;;;26.26;51.58;95135.16;4955348;28;20104;-67
2021/08/07 08:55:10;;;;;;;10.27;2.03;;;28.60;43.40;;;26.15;49.60;95131.13;4923587;28;20046;-65
2021/08/07 08:57:36;;;;;;;5.00;1.80;;;28.40;44.10;;;26.10;51.09;95121.28;4945925;28;20045;-66
2021/08/07 09:00:04;;;;;;;7.28;1.73;;;28.40;43.90;;;26.12;50.87;95129.84;4932929;28;20030;-66
2021/08/07 09:02:29;;;;;;;13.23;2.47;;;28.50;44.70;;;26.17;51.00;95132.41;4970773;28;20486;-65
2021/08/07 09:04:55;;;;;;;12.80;2.33;;;28.70;43.50;;;26.22;50.58;95132.25;4951523;28;20121;-65
2021/08/07 09:07:21;;;;;;;14.65;3.00;;;28.70;43.40;;;26.31;50.84;95136.91;4937206;28;20071;-66
2021/08/07 09:09:52;;;;;;;26.52;4.45;;;29.00;43.10;;;26.39;48.07;95133.47;4949211;28;20113;-65
2021/08/07 09:12:18;;;;;;;10.48;2.63;;;29.00;41.80;;;26.41;49.85;95123.16;4925860;29;20466;-64
2021/08/07 09:14:46;;;;;;;6.85;1.85;;;28.80;42.00;;;26.37;49.29;95123.00;4965342;28;20039;-65
2021/08/07 09:17:19;;;;;;;2.70;1.35;;;28.70;42.20;;;26.33;47.76;95118.50;4960665;28;20035;-64
2021/08/07 09:19:50;;;;;;;1.65;1.00;;;28.60;42.60;;;26.36;49.33;95128.69;4948540;28;20128;-63
2021/08/07 09:22:17;;;;;;;12.55;1.80;;;28.70;43.40;;;26.42;50.15;95119.34;4934915;28;20031;-65
2021/08/07 09:25:09;;;;;;;28.95;3.42;;;28.80;44.00;;;26.46;47.84;95128.41;4966091;28;20181;-64
2021/08/07 09:27:48;;;;;;;38.35;6.20;;;28.80;43.30;;;26.42;48.22;95122.06;4981125;28;20118;-65
2021/08/07 09:30:16;;;;;;;32.65;4.68;;;28.80;43.30;;;26.49;49.20;95115.13;4944720;28;20035;-64
2021/08/07 09:33:03;;;;;;;14.45;3.40;;;29.00;43.20;;;26.57;47.21;95108.13;4960260;28;20078;-65
2021/08/07 09:35:42;;;;;;;5.93;1.92;;;29.10;41.90;;;26.62;47.72;95110.69;4961310;28;20488;-65
2021/08/07 09:38:30;;;;;;;14.65;3.05;;;29.00;42.30;;;26.53;46.93;95099.88;4951526;28;20496;-65
2021/08/07 09:41:02;;;;;;;11.13;2.25;;;28.60;42.90;;;26.43;47.01;95102.06;4943833;28;20055;-65
2021/08/07 09:43:40;;;;;;;3.05;1.35;;;28.50;42.70;;;26.33;47.44;95105.03;4917164;28;20035;-65
2021/08/07 09:46:22;;;;;;;17.80;2.55;;;28.40;43.70;;;26.27;47.65;95103.59;4959094;28;20506;-64
2021/08/07 09:48:50;;;;;;;10.73;2.42;;;28.30;43.90;;;26.16;48.76;95111.94;4941854;28;20045;-65
2021/08/07 09:51:30;;;;;;;23.23;4.63;;;28.10;43.90;;;26.07;47.84;95104.94;4935441;28;20038;-66
2021/08/07 09:54:18;;;;;;;15.57;2.45;;;27.90;44.70;;;25.91;47.10;95102.66;4953317;28;20046;-65
2021/08/07 09:56:52;;;;;;;13.57;2.40;;;27.70;43.50;;;25.79;46.87;95094.34;4934536;28;20507;-64
2021/08/07 09:59:20;;;;;;;4.18;1.70;;;27.60;43.70;;;25.72;48.42;95098.59;4951678;28;20046;-66
2021/08/07 10:01:47;;;;;;;8.15;5.88;;;27.50;43.60;;;25.60;48.53;95081.09;4946246;28;20039;-63
2021/08/07 10:04:14;;;;;;;10.38;5.10;;;27.30;44.90;;;25.51;48.49;95072.16;4951012;28;20035;-67
2021/08/07 10:06:41;;;;;;;11.57;3.17;;;27.30;44.50;;;25.50;48.42;95064.38;4937055;28;20039;-64
2021/08/07 10:09:06;;;;;;;10.80;1.88;;;27.40;44.70;;;25.54;48.09;95055.38;4950541;28;20054;-64
2021/08/07 10:11:33;;;;;;;5.03;1.88;;;27.70;43.00;;;25.69;47.94;95056.13;4962697;28;20042;-64
2021/08/07 10:13:59;;;;;;;10.07;2.08;;;28.00;42.60;;;25.82;48.01;95060.63;4942298;28;20039;-67
2021/08/07 10:16:25;;;;;;;21.88;2.85;;;28.20;41.70;;;25.92;47.50;95055.75;4915759;29;20424;-65
2021/08/07 10:18:51;;;;;;;19.85;3.03;;;28.40;40.90;;;26.06;46.77;95061.03;4951209;28;20071;-64